sensor_id;sensor_type;location;lat;lon;timestamp;temperature;humidity
18260;DHT22;9256;52.236;5.712;2023-05-10T00:00:42;13.00;99.90
18260;DHT22;9256;52.236;5.712;2023-05-10T00:03:09;12.90;99.90
18260;DHT22;9256;52.236;5.712;2023-05-10T00:05:38;12.90;99.90
18260;DHT22;9256;52.236;5.712;2023-05-10T00:08:05;12.90;99.90
18260;DHT22;9256;52.236;5.712;2023-05-10T00:10:31;12.90;99.90
18260;DHT22;9256;52.236;5.712;2023-05-10T00:12:58;12.90;99.90
18260;DHT22;9256;52.236;5.712;2023-05-10T00:15:25;12.90;99.90
18260;DHT22;9256;52.236;5.712;2023-05-10T00:17:52;13.00;99.90
18260;DHT22;9256;52.236;5.712;2023-05-10T00:20:19;13.00;99.90
18260;DHT22;9256;52.236;5.712;2023-05-10T00:22:47;13.10;99.90
18260;DHT22;9256;52.236;5.712;2023-05-10T00:25:14;13.00;99.90
18260;DHT22;9256;52.236;5.712;2023-05-10T00:27:41;13.00;99.90
18260;DHT22;9256;52.236;5.712;2023-05-10T00:30:09;13.00;99.90
18260;DHT22;9256;52.236;5.712;2023-05-10T00:32:36;13.00;99.90
18260;DHT22;9256;52.236;5.712;2023-05-10T00:35:03;13.00;99.90
18260;DHT22;9256;52.236;5.712;2023-05-10T00:37:30;13.00;99.90
18260;DHT22;9256;52.236;5.712;2023-05-10T00:39:58;12.90;99.90
18260;DHT22;9256;52.236;5.712;2023-05-10T00:42:25;12.90;99.90
18260;DHT22;9256;52.236;5.712;2023-05-10T00:44:52;12.90;99.90
18260;DHT22;9256;52.236;5.712;2023-05-10T00:47:19;13.00;99.90
18260;DHT22;9256;52.236;5.712;2023-05-10T00:49:46;13.00;99.90
18260;DHT22;9256;52.236;5.712;2023-05-10T00:52:13;13.00;99.90
18260;DHT22;9256;52.236;5.712;2023-05-10T00:54:40;13.00;99.90
18260;DHT22;9256;52.236;5.712;2023-05-10T00:57:08;13.00;99.90
18260;DHT22;9256;52.236;5.712;2023-05-10T00:59:36;13.00;99.90
18260;DHT22;9256;52.236;5.712;2023-05-10T01:02:03;13.00;99.90
18260;DHT22;9256;52.236;5.712;2023-05-10T01:04:30;13.00;99.90
18260;DHT22;9256;52.236;5.712;2023-05-10T01:06:57;13.10;99.90
18260;DHT22;9256;52.236;5.712;2023-05-10T01:09:24;13.10;99.90
18260;DHT22;9256;52.236;5.712;2023-05-10T01:11:52;13.10;99.90
18260;DHT22;9256;52.236;5.712;2023-05-10T01:14:21;13.10;99.90
18260;DHT22;9256;52.236;5.712;2023-05-10T01:16:49;13.00;99.90
18260;DHT22;9256;52.236;5.712;2023-05-10T01:19:19;13.00;99.90
18260;DHT22;9256;52.236;5.712;2023-05-10T01:21:53;13.00;99.90
18260;DHT22;9256;52.236;5.712;2023-05-10T01:24:48;13.00;99.90
18260;DHT22;9256;52.236;5.712;2023-05-10T01:27:31;13.10;99.90
18260;DHT22;9256;52.236;5.712;2023-05-10T01:30:08;13.10;99.90
18260;DHT22;9256;52.236;5.712;2023-05-10T01:32:52;13.10;99.90
18260;DHT22;9256;52.236;5.712;2023-05-10T01:35:29;13.00;99.90
18260;DHT22;9256;52.236;5.712;2023-05-10T01:38:02;13.00;99.90
18260;DHT22;9256;52.236;5.712;2023-05-10T01:40:37;13.00;99.90
18260;DHT22;9256;52.236;5.712;2023-05-10T01:43:07;13.00;99.90
18260;DHT22;9256;52.236;5.712;2023-05-10T01:45:38;13.10;99.90
18260;DHT22;9256;52.236;5.712;2023-05-10T01:48:10;13.10;99.90
18260;DHT22;9256;52.236;5.712;2023-05-10T01:50:41;13.10;99.90
18260;DHT22;9256;52.236;5.712;2023-05-10T01:53:11;13.10;99.90
18260;DHT22;9256;52.236;5.712;2023-05-10T01:55:43;13.20;99.90
18260;DHT22;9256;52.236;5.712;2023-05-10T01:58:21;13.10;99.90
18260;DHT22;9256;52.236;5.712;2023-05-10T02:00:50;13.10;99.90
18260;DHT22;9256;52.236;5.712;2023-05-10T02:03:23;13.10;99.90
18260;DHT22;9256;52.236;5.712;2023-05-10T02:05:52;13.10;99.90
18260;DHT22;9256;52.236;5.712;2023-05-10T02:08:21;13.10;99.90
18260;DHT22;9256;52.236;5.712;2023-05-10T02:10:50;13.00;99.90
18260;DHT22;9256;52.236;5.712;2023-05-10T02:13:18;13.00;99.90
18260;DHT22;9256;52.236;5.712;2023-05-10T02:15:48;13.10;99.90
18260;DHT22;9256;52.236;5.712;2023-05-10T02:18:16;13.10;99.90
18260;DHT22;9256;52.236;5.712;2023-05-10T02:20:46;13.10;99.90
18260;DHT22;9256;52.236;5.712;2023-05-10T02:23:13;13.10;99.90
18260;DHT22;9256;52.236;5.712;2023-05-10T02:25:43;13.10;99.90
18260;DHT22;9256;52.236;5.712;2023-05-10T02:28:11;13.10;99.90
18260;DHT22;9256;52.236;5.712;2023-05-10T02:30:39;13.10;99.90
18260;DHT22;9256;52.236;5.712;2023-05-10T02:33:07;13.00;99.90
18260;DHT22;9256;52.236;5.712;2023-05-10T02:35:35;13.10;99.90
18260;DHT22;9256;52.236;5.712;2023-05-10T02:38:04;13.00;99.90
18260;DHT22;9256;52.236;5.712;2023-05-10T02:40:32;13.10;99.90
18260;DHT22;9256;52.236;5.712;2023-05-10T02:43:01;13.10;99.90
18260;DHT22;9256;52.236;5.712;2023-05-10T02:45:31;13.10;99.90
18260;DHT22;9256;52.236;5.712;2023-05-10T02:47:58;13.00;99.90
18260;DHT22;9256;52.236;5.712;2023-05-10T02:50:27;13.00;99.90
18260;DHT22;9256;52.236;5.712;2023-05-10T02:53:00;13.00;99.90
18260;DHT22;9256;52.236;5.712;2023-05-10T02:55:35;13.00;99.90
18260;DHT22;9256;52.236;5.712;2023-05-10T02:58:03;13.00;99.90
18260;DHT22;9256;52.236;5.712;2023-05-10T03:00:31;13.00;99.90
18260;DHT22;9256;52.236;5.712;2023-05-10T03:02:58;12.90;99.90
18260;DHT22;9256;52.236;5.712;2023-05-10T03:05:25;12.90;99.90
18260;DHT22;9256;52.236;5.712;2023-05-10T03:07:52;12.90;99.90
18260;DHT22;9256;52.236;5.712;2023-05-10T03:10:22;13.00;99.90
18260;DHT22;9256;52.236;5.712;2023-05-10T03:13:13;12.90;99.90
18260;DHT22;9256;52.236;5.712;2023-05-10T03:15:49;12.90;99.90
18260;DHT22;9256;52.236;5.712;2023-05-10T03:18:22;12.90;99.90
18260;DHT22;9256;52.236;5.712;2023-05-10T03:20:51;12.90;99.90
18260;DHT22;9256;52.236;5.712;2023-05-10T03:23:27;12.90;99.90
18260;DHT22;9256;52.236;5.712;2023-05-10T03:25:54;13.00;99.90
18260;DHT22;9256;52.236;5.712;2023-05-10T03:28:25;12.90;99.90
18260;DHT22;9256;52.236;5.712;2023-05-10T03:30:53;13.00;99.90
18260;DHT22;9256;52.236;5.712;2023-05-10T03:33:20;13.00;99.90
18260;DHT22;9256;52.236;5.712;2023-05-10T03:35:48;13.00;99.90
18260;DHT22;9256;52.236;5.712;2023-05-10T03:38:14;12.90;99.90
18260;DHT22;9256;52.236;5.712;2023-05-10T03:40:41;12.90;99.90
18260;DHT22;9256;52.236;5.712;2023-05-10T03:43:08;12.90;99.90
18260;DHT22;9256;52.236;5.712;2023-05-10T03:45:36;12.90;99.90
18260;DHT22;9256;52.236;5.712;2023-05-10T03:48:04;12.90;99.90
18260;DHT22;9256;52.236;5.712;2023-05-10T03:50:31;12.90;99.90
18260;DHT22;9256;52.236;5.712;2023-05-10T03:52:58;12.90;99.90
18260;DHT22;9256;52.236;5.712;2023-05-10T03:55:25;12.90;99.90
18260;DHT22;9256;52.236;5.712;2023-05-10T03:57:52;12.90;99.90
18260;DHT22;9256;52.236;5.712;2023-05-10T04:00:20;12.90;99.90
18260;DHT22;9256;52.236;5.712;2023-05-10T04:02:48;12.90;99.90
18260;DHT22;9256;52.236;5.712;2023-05-10T04:05:15;12.90;99.90
18260;DHT22;9256;52.236;5.712;2023-05-10T04:07:42;12.90;99.90
18260;DHT22;9256;52.236;5.712;2023-05-10T04:10:10;12.90;99.90
18260;DHT22;9256;52.236;5.712;2023-05-10T04:12:37;12.80;99.90
18260;DHT22;9256;52.236;5.712;2023-05-10T04:15:04;12.80;99.90
18260;DHT22;9256;52.236;5.712;2023-05-10T04:17:32;12.80;99.90
18260;DHT22;9256;52.236;5.712;2023-05-10T04:20:00;12.80;99.90
18260;DHT22;9256;52.236;5.712;2023-05-10T04:22:27;12.70;99.90
18260;DHT22;9256;52.236;5.712;2023-05-10T04:24:54;12.70;99.90
18260;DHT22;9256;52.236;5.712;2023-05-10T04:27:21;12.70;99.90
18260;DHT22;9256;52.236;5.712;2023-05-10T04:29:48;12.70;99.90
18260;DHT22;9256;52.236;5.712;2023-05-10T04:32:15;12.70;99.90
18260;DHT22;9256;52.236;5.712;2023-05-10T04:34:42;12.60;99.90
18260;DHT22;9256;52.236;5.712;2023-05-10T04:37:11;12.70;99.90
18260;DHT22;9256;52.236;5.712;2023-05-10T04:39:38;12.60;99.90
18260;DHT22;9256;52.236;5.712;2023-05-10T04:42:05;12.60;99.90
18260;DHT22;9256;52.236;5.712;2023-05-10T04:44:32;12.60;99.90
18260;DHT22;9256;52.236;5.712;2023-05-10T04:46:59;12.60;99.90
18260;DHT22;9256;52.236;5.712;2023-05-10T04:49:27;12.60;99.90
18260;DHT22;9256;52.236;5.712;2023-05-10T04:51:55;12.60;99.90
18260;DHT22;9256;52.236;5.712;2023-05-10T04:54:23;12.70;99.90
18260;DHT22;9256;52.236;5.712;2023-05-10T04:56:50;12.60;99.90
18260;DHT22;9256;52.236;5.712;2023-05-10T04:59:17;12.60;99.90
18260;DHT22;9256;52.236;5.712;2023-05-10T05:01:44;12.60;99.90
18260;DHT22;9256;52.236;5.712;2023-05-10T05:04:11;12.60;99.90
18260;DHT22;9256;52.236;5.712;2023-05-10T05:06:38;12.70;99.90
18260;DHT22;9256;52.236;5.712;2023-05-10T05:09:05;12.70;99.90
18260;DHT22;9256;52.236;5.712;2023-05-10T05:11:33;12.60;99.90
18260;DHT22;9256;52.236;5.712;2023-05-10T05:14:00;12.70;99.90
18260;DHT22;9256;52.236;5.712;2023-05-10T05:16:27;12.70;99.90
18260;DHT22;9256;52.236;5.712;2023-05-10T05:18:54;12.70;99.90
18260;DHT22;9256;52.236;5.712;2023-05-10T05:21:21;12.70;99.90
18260;DHT22;9256;52.236;5.712;2023-05-10T05:23:49;12.70;99.90
18260;DHT22;9256;52.236;5.712;2023-05-10T05:26:16;12.70;99.90
18260;DHT22;9256;52.236;5.712;2023-05-10T05:28:44;12.60;99.90
18260;DHT22;9256;52.236;5.712;2023-05-10T05:31:11;12.60;99.90
18260;DHT22;9256;52.236;5.712;2023-05-10T05:33:39;12.70;99.90
18260;DHT22;9256;52.236;5.712;2023-05-10T05:36:06;12.70;99.90
18260;DHT22;9256;52.236;5.712;2023-05-10T05:38:33;12.70;99.90
18260;DHT22;9256;52.236;5.712;2023-05-10T05:41:00;12.60;99.90
18260;DHT22;9256;52.236;5.712;2023-05-10T05:43:28;12.60;99.90
18260;DHT22;9256;52.236;5.712;2023-05-10T05:45:56;12.60;99.90
18260;DHT22;9256;52.236;5.712;2023-05-10T05:48:24;12.60;99.90
18260;DHT22;9256;52.236;5.712;2023-05-10T05:50:54;12.60;99.90
18260;DHT22;9256;52.236;5.712;2023-05-10T05:53:22;12.60;99.90
18260;DHT22;9256;52.236;5.712;2023-05-10T05:55:52;12.60;99.90
18260;DHT22;9256;52.236;5.712;2023-05-10T05:58:20;12.60;99.90
18260;DHT22;9256;52.236;5.712;2023-05-10T06:00:47;12.60;99.90
18260;DHT22;9256;52.236;5.712;2023-05-10T06:03:16;12.60;99.90
18260;DHT22;9256;52.236;5.712;2023-05-10T06:05:43;12.60;99.90
18260;DHT22;9256;52.236;5.712;2023-05-10T06:08:10;12.70;99.90
18260;DHT22;9256;52.236;5.712;2023-05-10T06:10:37;12.80;99.90
18260;DHT22;9256;52.236;5.712;2023-05-10T06:13:04;12.80;99.90
18260;DHT22;9256;52.236;5.712;2023-05-10T06:15:31;12.70;99.90
18260;DHT22;9256;52.236;5.712;2023-05-10T06:17:58;12.60;99.90
18260;DHT22;9256;52.236;5.712;2023-05-10T06:20:26;12.60;99.90
18260;DHT22;9256;52.236;5.712;2023-05-10T06:22:53;12.70;99.90
18260;DHT22;9256;52.236;5.712;2023-05-10T06:25:20;12.50;99.90
18260;DHT22;9256;52.236;5.712;2023-05-10T06:27:47;12.60;99.90
18260;DHT22;9256;52.236;5.712;2023-05-10T06:30:14;12.60;99.90
18260;DHT22;9256;52.236;5.712;2023-05-10T06:32:41;12.60;99.90
18260;DHT22;9256;52.236;5.712;2023-05-10T06:35:10;12.60;99.90
18260;DHT22;9256;52.236;5.712;2023-05-10T06:37:39;12.60;99.90
18260;DHT22;9256;52.236;5.712;2023-05-10T06:40:07;12.60;99.90
18260;DHT22;9256;52.236;5.712;2023-05-10T06:42:34;12.50;99.90
18260;DHT22;9256;52.236;5.712;2023-05-10T06:45:03;12.50;99.90
18260;DHT22;9256;52.236;5.712;2023-05-10T06:47:30;12.50;99.90
18260;DHT22;9256;52.236;5.712;2023-05-10T06:49:57;12.50;99.90
18260;DHT22;9256;52.236;5.712;2023-05-10T06:52:24;12.50;99.90
18260;DHT22;9256;52.236;5.712;2023-05-10T06:54:52;12.60;99.90
18260;DHT22;9256;52.236;5.712;2023-05-10T06:57:19;12.60;99.90
18260;DHT22;9256;52.236;5.712;2023-05-10T06:59:47;12.60;99.90
18260;DHT22;9256;52.236;5.712;2023-05-10T07:02:14;12.60;99.90
18260;DHT22;9256;52.236;5.712;2023-05-10T07:04:41;12.70;99.90
18260;DHT22;9256;52.236;5.712;2023-05-10T07:07:08;12.70;99.90
18260;DHT22;9256;52.236;5.712;2023-05-10T07:09:35;12.70;99.90
18260;DHT22;9256;52.236;5.712;2023-05-10T07:12:04;12.80;99.90
18260;DHT22;9256;52.236;5.712;2023-05-10T07:14:31;12.80;99.90
18260;DHT22;9256;52.236;5.712;2023-05-10T07:16:58;12.80;99.90
18260;DHT22;9256;52.236;5.712;2023-05-10T07:19:25;12.80;99.90
18260;DHT22;9256;52.236;5.712;2023-05-10T07:21:52;13.00;99.90
18260;DHT22;9256;52.236;5.712;2023-05-10T07:24:19;13.20;99.90
18260;DHT22;9256;52.236;5.712;2023-05-10T07:26:46;13.30;99.90
18260;DHT22;9256;52.236;5.712;2023-05-10T07:29:14;13.30;99.90
18260;DHT22;9256;52.236;5.712;2023-05-10T07:31:41;13.30;99.90
18260;DHT22;9256;52.236;5.712;2023-05-10T07:34:08;13.40;99.90
18260;DHT22;9256;52.236;5.712;2023-05-10T07:36:35;13.30;99.90
18260;DHT22;9256;52.236;5.712;2023-05-10T07:39:02;13.20;99.90
18260;DHT22;9256;52.236;5.712;2023-05-10T07:41:29;13.20;99.90
18260;DHT22;9256;52.236;5.712;2023-05-10T07:43:56;13.00;99.90
18260;DHT22;9256;52.236;5.712;2023-05-10T07:46:24;13.00;99.90
18260;DHT22;9256;52.236;5.712;2023-05-10T07:48:51;13.10;99.90
18260;DHT22;9256;52.236;5.712;2023-05-10T07:51:18;13.20;99.90
18260;DHT22;9256;52.236;5.712;2023-05-10T07:53:45;13.20;99.90
18260;DHT22;9256;52.236;5.712;2023-05-10T07:56:23;13.20;99.90
18260;DHT22;9256;52.236;5.712;2023-05-10T07:58:52;13.20;99.90
18260;DHT22;9256;52.236;5.712;2023-05-10T08:01:19;13.20;99.90
18260;DHT22;9256;52.236;5.712;2023-05-10T08:03:48;13.20;99.90
18260;DHT22;9256;52.236;5.712;2023-05-10T08:06:17;13.20;99.90
18260;DHT22;9256;52.236;5.712;2023-05-10T08:08:45;12.90;99.90
18260;DHT22;9256;52.236;5.712;2023-05-10T08:11:14;13.00;99.90
18260;DHT22;9256;52.236;5.712;2023-05-10T08:13:41;13.10;99.90
18260;DHT22;9256;52.236;5.712;2023-05-10T08:16:08;12.90;99.90
18260;DHT22;9256;52.236;5.712;2023-05-10T08:18:36;13.00;99.90
18260;DHT22;9256;52.236;5.712;2023-05-10T08:21:05;13.10;99.90
18260;DHT22;9256;52.236;5.712;2023-05-10T08:23:32;13.10;99.90
18260;DHT22;9256;52.236;5.712;2023-05-10T08:25:59;13.20;99.90
18260;DHT22;9256;52.236;5.712;2023-05-10T08:28:26;13.50;99.90
18260;DHT22;9256;52.236;5.712;2023-05-10T08:30:54;13.70;99.90
18260;DHT22;9256;52.236;5.712;2023-05-10T08:33:21;13.80;99.90
18260;DHT22;9256;52.236;5.712;2023-05-10T08:35:48;13.90;99.90
18260;DHT22;9256;52.236;5.712;2023-05-10T08:38:16;13.70;99.90
18260;DHT22;9256;52.236;5.712;2023-05-10T08:40:44;13.80;99.90
18260;DHT22;9256;52.236;5.712;2023-05-10T08:43:12;13.80;99.90
18260;DHT22;9256;52.236;5.712;2023-05-10T08:45:41;13.90;99.90
18260;DHT22;9256;52.236;5.712;2023-05-10T08:48:10;13.90;99.90
18260;DHT22;9256;52.236;5.712;2023-05-10T08:50:38;14.00;99.90
18260;DHT22;9256;52.236;5.712;2023-05-10T08:53:06;14.00;99.90
18260;DHT22;9256;52.236;5.712;2023-05-10T08:55:37;14.00;99.90
18260;DHT22;9256;52.236;5.712;2023-05-10T08:58:06;13.90;99.90
18260;DHT22;9256;52.236;5.712;2023-05-10T09:00:33;13.90;99.90
18260;DHT22;9256;52.236;5.712;2023-05-10T09:03:02;13.80;99.90
18260;DHT22;9256;52.236;5.712;2023-05-10T09:05:29;13.70;99.90
18260;DHT22;9256;52.236;5.712;2023-05-10T09:07:56;13.80;99.90
18260;DHT22;9256;52.236;5.712;2023-05-10T09:10:25;14.00;99.90
18260;DHT22;9256;52.236;5.712;2023-05-10T09:12:56;14.10;99.90
18260;DHT22;9256;52.236;5.712;2023-05-10T09:15:23;14.20;99.90
18260;DHT22;9256;52.236;5.712;2023-05-10T09:17:50;14.40;99.90
18260;DHT22;9256;52.236;5.712;2023-05-10T09:20:17;14.70;99.90
18260;DHT22;9256;52.236;5.712;2023-05-10T09:22:44;14.90;99.90
18260;DHT22;9256;52.236;5.712;2023-05-10T09:25:13;14.90;99.90
18260;DHT22;9256;52.236;5.712;2023-05-10T09:27:43;14.80;99.90
18260;DHT22;9256;52.236;5.712;2023-05-10T09:30:16;14.60;99.90
18260;DHT22;9256;52.236;5.712;2023-05-10T09:32:45;14.50;99.90
18260;DHT22;9256;52.236;5.712;2023-05-10T09:35:13;14.30;99.90
18260;DHT22;9256;52.236;5.712;2023-05-10T09:37:42;14.40;99.90
18260;DHT22;9256;52.236;5.712;2023-05-10T09:40:12;14.50;99.90
18260;DHT22;9256;52.236;5.712;2023-05-10T09:42:41;14.50;99.90
18260;DHT22;9256;52.236;5.712;2023-05-10T09:45:09;14.50;99.90
18260;DHT22;9256;52.236;5.712;2023-05-10T09:47:37;14.40;99.90
18260;DHT22;9256;52.236;5.712;2023-05-10T09:50:05;14.40;99.90
18260;DHT22;9256;52.236;5.712;2023-05-10T09:52:46;14.50;99.90
18260;DHT22;9256;52.236;5.712;2023-05-10T09:55:14;14.60;99.90
18260;DHT22;9256;52.236;5.712;2023-05-10T09:57:41;14.70;99.90
18260;DHT22;9256;52.236;5.712;2023-05-10T10:00:09;15.00;99.90
18260;DHT22;9256;52.236;5.712;2023-05-10T10:02:38;15.00;99.90
18260;DHT22;9256;52.236;5.712;2023-05-10T10:05:07;15.40;99.90
18260;DHT22;9256;52.236;5.712;2023-05-10T10:07:34;15.50;99.90
18260;DHT22;9256;52.236;5.712;2023-05-10T10:10:01;15.50;99.90
18260;DHT22;9256;52.236;5.712;2023-05-10T10:12:30;15.70;99.90
18260;DHT22;9256;52.236;5.712;2023-05-10T10:14:59;15.60;99.90
18260;DHT22;9256;52.236;5.712;2023-05-10T10:17:27;15.30;99.90
18260;DHT22;9256;52.236;5.712;2023-05-10T10:19:57;15.30;99.90
18260;DHT22;9256;52.236;5.712;2023-05-10T10:22:24;15.30;99.90
18260;DHT22;9256;52.236;5.712;2023-05-10T10:24:51;15.40;99.90
18260;DHT22;9256;52.236;5.712;2023-05-10T10:27:24;15.10;99.90
18260;DHT22;9256;52.236;5.712;2023-05-10T10:30:01;15.30;99.90
18260;DHT22;9256;52.236;5.712;2023-05-10T10:32:38;15.30;99.90
18260;DHT22;9256;52.236;5.712;2023-05-10T10:35:10;15.80;99.90
18260;DHT22;9256;52.236;5.712;2023-05-10T10:37:44;16.30;99.90
18260;DHT22;9256;52.236;5.712;2023-05-10T10:40:27;16.30;99.90
18260;DHT22;9256;52.236;5.712;2023-05-10T10:42:55;16.30;99.90
18260;DHT22;9256;52.236;5.712;2023-05-10T10:45:24;16.20;99.90
18260;DHT22;9256;52.236;5.712;2023-05-10T10:48:20;16.30;99.90
18260;DHT22;9256;52.236;5.712;2023-05-10T10:50:56;16.20;99.90
18260;DHT22;9256;52.236;5.712;2023-05-10T10:53:26;16.20;99.90
18260;DHT22;9256;52.236;5.712;2023-05-10T10:56:04;16.40;99.90
18260;DHT22;9256;52.236;5.712;2023-05-10T10:58:34;16.30;99.90
18260;DHT22;9256;52.236;5.712;2023-05-10T11:01:22;16.40;99.90
18260;DHT22;9256;52.236;5.712;2023-05-10T11:04:18;16.40;99.90
18260;DHT22;9256;52.236;5.712;2023-05-10T11:06:47;16.30;99.90
18260;DHT22;9256;52.236;5.712;2023-05-10T11:09:14;16.30;99.90
18260;DHT22;9256;52.236;5.712;2023-05-10T11:11:50;16.30;99.90
18260;DHT22;9256;52.236;5.712;2023-05-10T11:14:20;16.70;99.90
18260;DHT22;9256;52.236;5.712;2023-05-10T11:16:47;17.10;99.90
18260;DHT22;9256;52.236;5.712;2023-05-10T11:19:15;17.00;99.90
18260;DHT22;9256;52.236;5.712;2023-05-10T11:21:49;17.00;99.90
18260;DHT22;9256;52.236;5.712;2023-05-10T11:24:17;16.80;99.90
18260;DHT22;9256;52.236;5.712;2023-05-10T11:26:44;16.70;99.90
18260;DHT22;9256;52.236;5.712;2023-05-10T11:29:13;16.50;99.90
18260;DHT22;9256;52.236;5.712;2023-05-10T11:31:43;16.50;99.90
18260;DHT22;9256;52.236;5.712;2023-05-10T11:34:15;16.40;99.90
18260;DHT22;9256;52.236;5.712;2023-05-10T11:36:52;16.50;99.90
18260;DHT22;9256;52.236;5.712;2023-05-10T11:39:20;16.50;99.90
18260;DHT22;9256;52.236;5.712;2023-05-10T11:41:48;16.50;99.90
18260;DHT22;9256;52.236;5.712;2023-05-10T11:44:16;16.60;99.90
18260;DHT22;9256;52.236;5.712;2023-05-10T11:46:43;16.70;99.90
18260;DHT22;9256;52.236;5.712;2023-05-10T11:49:10;16.70;99.90
18260;DHT22;9256;52.236;5.712;2023-05-10T11:51:38;16.80;99.90
18260;DHT22;9256;52.236;5.712;2023-05-10T11:54:10;16.70;99.90
18260;DHT22;9256;52.236;5.712;2023-05-10T11:56:37;16.50;99.90
18260;DHT22;9256;52.236;5.712;2023-05-10T11:59:05;16.70;99.90
18260;DHT22;9256;52.236;5.712;2023-05-10T12:01:32;16.90;99.90
18260;DHT22;9256;52.236;5.712;2023-05-10T12:03:59;16.70;99.90
18260;DHT22;9256;52.236;5.712;2023-05-10T12:06:28;16.80;99.90
18260;DHT22;9256;52.236;5.712;2023-05-10T12:08:57;17.00;99.90
18260;DHT22;9256;52.236;5.712;2023-05-10T12:11:27;17.10;99.90
18260;DHT22;9256;52.236;5.712;2023-05-10T12:13:55;16.80;99.90
18260;DHT22;9256;52.236;5.712;2023-05-10T12:16:23;16.80;99.90
18260;DHT22;9256;52.236;5.712;2023-05-10T12:18:51;16.80;99.90
18260;DHT22;9256;52.236;5.712;2023-05-10T12:21:19;17.10;99.90
18260;DHT22;9256;52.236;5.712;2023-05-10T12:23:48;17.20;99.90
18260;DHT22;9256;52.236;5.712;2023-05-10T12:26:15;17.40;99.90
18260;DHT22;9256;52.236;5.712;2023-05-10T12:28:43;17.60;99.90
18260;DHT22;9256;52.236;5.712;2023-05-10T12:31:10;17.70;99.90
18260;DHT22;9256;52.236;5.712;2023-05-10T12:33:38;17.70;99.90
18260;DHT22;9256;52.236;5.712;2023-05-10T12:36:07;17.40;99.90
18260;DHT22;9256;52.236;5.712;2023-05-10T12:38:36;17.40;99.90
18260;DHT22;9256;52.236;5.712;2023-05-10T12:41:05;17.30;99.90
18260;DHT22;9256;52.236;5.712;2023-05-10T12:43:32;17.30;99.90
18260;DHT22;9256;52.236;5.712;2023-05-10T12:46:06;17.40;99.90
18260;DHT22;9256;52.236;5.712;2023-05-10T12:48:33;17.40;99.90
18260;DHT22;9256;52.236;5.712;2023-05-10T12:51:00;17.70;99.90
18260;DHT22;9256;52.236;5.712;2023-05-10T12:53:27;17.70;99.90
18260;DHT22;9256;52.236;5.712;2023-05-10T12:55:54;17.90;99.90
18260;DHT22;9256;52.236;5.712;2023-05-10T12:58:21;17.90;99.90
18260;DHT22;9256;52.236;5.712;2023-05-10T13:00:48;17.90;99.90
18260;DHT22;9256;52.236;5.712;2023-05-10T13:03:16;17.60;99.90
18260;DHT22;9256;52.236;5.712;2023-05-10T13:05:43;17.70;99.90
18260;DHT22;9256;52.236;5.712;2023-05-10T13:08:10;17.60;99.90
18260;DHT22;9256;52.236;5.712;2023-05-10T13:10:37;17.70;99.90
18260;DHT22;9256;52.236;5.712;2023-05-10T13:13:04;17.60;99.90
18260;DHT22;9256;52.236;5.712;2023-05-10T13:15:31;17.60;99.90
18260;DHT22;9256;52.236;5.712;2023-05-10T13:17:58;17.30;99.90
18260;DHT22;9256;52.236;5.712;2023-05-10T13:20:27;17.30;99.90
18260;DHT22;9256;52.236;5.712;2023-05-10T13:22:54;17.10;99.90
18260;DHT22;9256;52.236;5.712;2023-05-10T13:25:20;17.00;99.90
18260;DHT22;9256;52.236;5.712;2023-05-10T13:27:47;17.40;99.90
18260;DHT22;9256;52.236;5.712;2023-05-10T13:30:14;17.40;99.90
18260;DHT22;9256;52.236;5.712;2023-05-10T13:32:41;17.60;99.90
18260;DHT22;9256;52.236;5.712;2023-05-10T13:35:08;17.80;99.90
18260;DHT22;9256;52.236;5.712;2023-05-10T13:37:37;17.70;99.90
18260;DHT22;9256;52.236;5.712;2023-05-10T13:40:04;17.70;99.90
18260;DHT22;9256;52.236;5.712;2023-05-10T13:42:32;18.00;99.90
18260;DHT22;9256;52.236;5.712;2023-05-10T13:45:00;18.40;99.90
18260;DHT22;9256;52.236;5.712;2023-05-10T13:47:27;18.70;99.90
18260;DHT22;9256;52.236;5.712;2023-05-10T13:49:54;18.80;99.90
18260;DHT22;9256;52.236;5.712;2023-05-10T13:52:21;19.30;99.90
18260;DHT22;9256;52.236;5.712;2023-05-10T13:54:49;19.30;99.90
18260;DHT22;9256;52.236;5.712;2023-05-10T13:57:17;19.40;99.90
18260;DHT22;9256;52.236;5.712;2023-05-10T13:59:44;19.50;99.90
18260;DHT22;9256;52.236;5.712;2023-05-10T14:02:11;19.60;99.90
18260;DHT22;9256;52.236;5.712;2023-05-10T14:04:38;19.30;99.90
18260;DHT22;9256;52.236;5.712;2023-05-10T14:07:05;18.10;99.90
18260;DHT22;9256;52.236;5.712;2023-05-10T14:09:32;18.20;99.90
18260;DHT22;9256;52.236;5.712;2023-05-10T14:12:00;17.90;99.90
18260;DHT22;9256;52.236;5.712;2023-05-10T14:14:27;17.30;99.90
18260;DHT22;9256;52.236;5.712;2023-05-10T14:16:54;17.10;99.90
18260;DHT22;9256;52.236;5.712;2023-05-10T14:19:21;16.90;99.90
18260;DHT22;9256;52.236;5.712;2023-05-10T14:21:48;17.10;99.90
18260;DHT22;9256;52.236;5.712;2023-05-10T14:24:17;16.90;99.90
18260;DHT22;9256;52.236;5.712;2023-05-10T14:26:44;16.80;99.90
18260;DHT22;9256;52.236;5.712;2023-05-10T14:29:12;16.80;99.90
18260;DHT22;9256;52.236;5.712;2023-05-10T14:31:40;16.90;99.90
18260;DHT22;9256;52.236;5.712;2023-05-10T14:34:07;17.10;99.90
18260;DHT22;9256;52.236;5.712;2023-05-10T14:36:34;17.20;99.90
18260;DHT22;9256;52.236;5.712;2023-05-10T14:39:01;16.90;99.90
18260;DHT22;9256;52.236;5.712;2023-05-10T14:41:28;16.60;99.90
18260;DHT22;9256;52.236;5.712;2023-05-10T14:43:55;16.50;99.90
18260;DHT22;9256;52.236;5.712;2023-05-10T14:46:24;16.30;99.90
18260;DHT22;9256;52.236;5.712;2023-05-10T14:48:51;16.20;99.90
18260;DHT22;9256;52.236;5.712;2023-05-10T14:51:17;16.10;99.90
18260;DHT22;9256;52.236;5.712;2023-05-10T14:53:47;15.80;99.90
18260;DHT22;9256;52.236;5.712;2023-05-10T14:56:14;15.70;99.90
18260;DHT22;9256;52.236;5.712;2023-05-10T14:58:43;15.90;99.90
18260;DHT22;9256;52.236;5.712;2023-05-10T15:01:11;16.00;99.90
18260;DHT22;9256;52.236;5.712;2023-05-10T15:03:39;16.00;99.90
18260;DHT22;9256;52.236;5.712;2023-05-10T15:06:08;15.90;99.90
18260;DHT22;9256;52.236;5.712;2023-05-10T15:08:36;15.80;99.90
18260;DHT22;9256;52.236;5.712;2023-05-10T15:11:03;15.80;99.90
18260;DHT22;9256;52.236;5.712;2023-05-10T15:13:30;15.80;99.90
18260;DHT22;9256;52.236;5.712;2023-05-10T15:15:56;15.70;99.90
18260;DHT22;9256;52.236;5.712;2023-05-10T15:18:23;15.80;99.90
18260;DHT22;9256;52.236;5.712;2023-05-10T15:20:52;15.70;99.90
18260;DHT22;9256;52.236;5.712;2023-05-10T15:23:20;15.70;99.90
18260;DHT22;9256;52.236;5.712;2023-05-10T15:25:47;15.70;99.90
18260;DHT22;9256;52.236;5.712;2023-05-10T15:28:15;15.60;99.90
18260;DHT22;9256;52.236;5.712;2023-05-10T15:30:42;15.60;99.90
18260;DHT22;9256;52.236;5.712;2023-05-10T15:33:09;15.60;99.90
18260;DHT22;9256;52.236;5.712;2023-05-10T15:35:36;15.50;99.90
18260;DHT22;9256;52.236;5.712;2023-05-10T15:38:06;15.50;99.90
18260;DHT22;9256;52.236;5.712;2023-05-10T15:40:33;15.50;99.90
18260;DHT22;9256;52.236;5.712;2023-05-10T15:43:00;15.60;99.90
18260;DHT22;9256;52.236;5.712;2023-05-10T15:45:27;15.60;99.90
18260;DHT22;9256;52.236;5.712;2023-05-10T15:47:54;15.60;99.90
18260;DHT22;9256;52.236;5.712;2023-05-10T15:50:21;15.60;99.90
18260;DHT22;9256;52.236;5.712;2023-05-10T15:52:47;15.60;99.90